RJOA/HIJ METAR and TAF weather

Enter ICAO airport designator
Station Type Date Time Source
RJOA METAR 2021/07/27 22:00 UTC NOAA

RJOA 272200Z 28004KT 250V320 9999 FEW015 SCT035 BKN/// 24/21 Q1004


Station Type Date Time Source
RJOA Decoded METAR 2021/07/27 22:00 UTC NOAA

Hiroshima Airport, Japan (RJOA) 34-26N 132-55E 334M
Jul 27, 2021 - 06:00 PM EDT / 2021.07.27 2200 UTC
Wind: from the W (280 degrees) at 5 MPH (4 KT) (direction variable):0
Visibility: greater than 7 mile(s):0
Sky conditions: mostly cloudy
Temperature: 75 F (24 C)
Dew Point: 69 F (21 C)
Relative Humidity: 83%
Pressure (altimeter): 29.65 in. Hg (1004 hPa)
ob: RJOA 272200Z 28004KT 250V320 9999 FEW015 SCT035 BKN/// 24/21 Q1004
cycle: 22

Station Type Date Time Source
RJOA TAF 2021/07/27 18:28 UTC NOAA

TAF RJOA 271705Z 2718/2900 34005KT 9999 FEW020

Example: see airport list